Time;durP1;ratioP1;P1;durP2;ratioP2;P2;SDS_P1;SDS_P2;PMS_P1;PMS_P2;Temp;Humidity;BMP_temperature;BMP_pressure;BME280_temperature;BME280_humidity;BME280_pressure;Samples;Min_cycle;Max_cycle;Signal;HPM_P1;HPM_P2
2024/04/03 00:01:23;;;;;;;0.00;0.00;;;;;;;9.80;100.00;98208.33;105599;1263;75051;-57
2024/04/03 00:03:50;;;;;;;0.20;0.10;;;;;;;9.76;100.00;98202.68;105669;1257;65825;-56
2024/04/03 00:06:18;;;;;;;0.00;0.00;;;;;;;9.75;100.00;98205.48;105660;1257;70477;-57
2024/04/03 00:08:45;;;;;;;0.10;0.00;;;;;;;9.73;100.00;98208.48;105772;1257;61228;-55
2024/04/03 00:11:12;;;;;;;0.10;0.00;;;;;;;9.73;100.00;98210.98;105685;1274;61395;-58
2024/04/03 00:13:40;;;;;;;0.00;0.00;;;;;;;9.74;100.00;98212.84;105774;1257;73501;-57
2024/04/03 00:16:07;;;;;;;0.00;0.00;;;;;;;9.73;100.00;98215.27;105944;1264;67055;-57
2024/04/03 00:18:34;;;;;;;0.00;0.00;;;;;;;9.73;100.00;98220.11;105853;1263;71904;-56
2024/04/03 00:21:02;;;;;;;1.30;0.00;;;;;;;9.72;100.00;98213.75;105819;1257;61336;-58
2024/04/03 00:23:30;;;;;;;0.10;0.00;;;;;;;9.67;100.00;98221.77;105949;1258;61373;-56
2024/04/03 00:25:58;;;;;;;0.00;0.00;;;;;;;9.64;100.00;98221.81;106193;1263;73644;-57
2024/04/03 00:28:26;;;;;;;7.30;0.00;;;;;;;9.63;100.00;98222.80;106042;1262;65293;-57
2024/04/03 00:30:53;;;;;;;0.00;0.00;;;;;;;9.63;100.00;98225.27;105878;1262;71477;-56
2024/04/03 00:33:21;;;;;;;0.00;0.00;;;;;;;9.63;100.00;98227.95;106047;1263;61304;-57
2024/04/03 00:35:58;;;;;;;0.00;0.00;;;;;;;9.64;100.00;98235.60;105877;1264;61192;-57
2024/04/03 00:38:26;;;;;;;0.10;0.00;;;;;;;9.65;100.00;98240.55;106210;1260;73418;-58
2024/04/03 00:40:57;;;;;;;0.00;0.00;;;;;;;9.64;100.00;98241.86;105758;1258;67091;-58
2024/04/03 00:43:28;;;;;;;0.10;0.00;;;;;;;9.59;100.00;98243.81;105775;1264;73210;-56
2024/04/03 00:45:58;;;;;;;0.10;0.00;;;;;;;9.55;100.00;98245.17;105914;1266;61330;-56
2024/04/03 00:48:25;;;;;;;0.00;0.00;;;;;;;9.53;100.00;98251.80;105861;1257;62211;-58
2024/04/03 00:50:54;;;;;;;0.20;0.00;;;;;;;9.50;100.00;98252.48;105880;1264;73336;-57
2024/04/03 00:53:22;;;;;;;0.30;0.00;;;;;;;9.52;100.00;98254.74;105931;1263;67465;-58
2024/04/03 00:55:50;;;;;;;0.10;0.00;;;;;;;9.53;100.00;98259.46;105966;1257;73084;-56
2024/04/03 00:58:17;;;;;;;0.00;0.00;;;;;;;9.55;100.00;98261.70;105744;1268;62242;-57
2024/04/03 01:00:44;;;;;;;0.10;0.00;;;;;;;9.56;100.00;98257.31;105916;1260;61206;-57
2024/04/03 01:03:11;;;;;;;0.10;0.00;;;;;;;9.55;100.00;98264.30;105855;1257;73397;-59
2024/04/03 01:05:38;;;;;;;0.00;0.00;;;;;;;9.55;100.00;98271.34;105801;1262;66757;-58
2024/04/03 01:08:05;;;;;;;0.00;0.00;;;;;;;9.53;100.00;98271.82;105741;1261;72812;-55
2024/04/03 01:10:32;;;;;;;0.10;0.00;;;;;;;9.50;100.00;98271.98;105784;1264;61748;-57
2024/04/03 01:13:03;;;;;;;0.00;0.00;;;;;;;9.49;100.00;98278.00;105687;1256;61385;-56
2024/04/03 01:15:30;;;;;;;0.10;0.00;;;;;;;9.48;100.00;98280.20;105705;1264;73752;-57
2024/04/03 01:17:57;;;;;;;0.10;0.00;;;;;;;9.50;100.00;98283.66;105770;1263;67080;-57
2024/04/03 01:20:24;;;;;;;0.10;0.10;;;;;;;9.52;100.00;98292.31;105777;1264;73325;-57
2024/04/03 01:22:51;;;;;;;0.10;0.00;;;;;;;9.54;100.00;98294.89;105803;1273;62211;-56
2024/04/03 01:25:19;;;;;;;0.20;0.00;;;;;;;9.55;100.00;98304.10;105769;1257;61925;-57
2024/04/03 01:27:46;;;;;;;0.10;0.10;;;;;;;9.56;100.00;98313.02;105816;1264;74657;-58
2024/04/03 01:30:13;;;;;;;0.20;0.10;;;;;;;9.57;100.00;98311.85;105865;1260;65501;-56
2024/04/03 01:32:41;;;;;;;0.30;0.10;;;;;;;9.58;100.00;98315.36;105878;1262;71786;-55
2024/04/03 01:35:08;;;;;;;0.10;0.00;;;;;;;9.57;100.00;98319.17;105847;1262;61382;-56
2024/04/03 01:37:35;;;;;;;0.40;0.00;;;;;;;9.56;100.00;98327.13;105863;1263;61282;-58
2024/04/03 01:40:03;;;;;;;0.00;0.00;;;;;;;9.58;100.00;98332.77;105856;1260;74704;-57
2024/04/03 01:42:31;;;;;;;0.40;0.00;;;;;;;9.61;100.00;98340.38;108877;1259;67807;-57
2024/04/03 01:44:58;;;;;;;0.00;0.00;;;;;;;9.63;100.00;98348.66;108852;1256;73096;-55
2024/04/03 01:47:25;;;;;;;1.50;0.10;;;;;;;9.65;100.00;98351.79;107689;1258;61294;-55
2024/04/03 01:49:53;;;;;;;0.10;0.00;;;;;;;9.65;100.00;98359.46;105786;1262;61657;-54
2024/04/03 01:52:21;;;;;;;0.20;0.10;;;;;;;9.66;100.00;98366.58;105685;1264;75102;-55
2024/04/03 01:54:48;;;;;;;0.00;0.00;;;;;;;9.66;100.00;98367.11;105764;1258;66251;-57
2024/04/03 01:57:15;;;;;;;0.10;0.10;;;;;;;9.66;100.00;98366.91;105757;1258;72750;-56
2024/04/03 01:59:45;;;;;;;0.10;0.00;;;;;;;9.65;100.00;98368.77;105764;1262;61051;-55
2024/04/03 02:02:12;;;;;;;0.10;0.10;;;;;;;9.64;100.00;98373.71;105852;1264;59999;-56
2024/04/03 02:04:39;;;;;;;0.10;0.00;;;;;;;9.62;100.00;98374.36;105848;1260;75079;-57
2024/04/03 02:07:06;;;;;;;0.10;0.00;;;;;;;9.62;100.00;98372.98;105821;1256;66956;-54
2024/04/03 02:09:37;;;;;;;0.90;0.00;;;;;;;9.60;100.00;98369.48;105723;1262;72724;-56
2024/04/03 02:12:05;;;;;;;0.10;0.00;;;;;;;9.59;100.00;98378.34;105697;1256;61318;-56
2024/04/03 02:14:32;;;;;;;0.10;0.00;;;;;;;9.58;100.00;98375.52;106210;1257;61330;-56
2024/04/03 02:17:00;;;;;;;0.10;0.10;;;;;;;9.58;100.00;98385.05;105797;1273;73512;-57
2024/04/03 02:19:27;;;;;;;0.10;0.00;;;;;;;9.55;100.00;98383.06;105786;1264;66681;-56
2024/04/03 02:21:54;;;;;;;0.00;0.00;;;;;;;9.51;100.00;98382.27;106173;1256;71557;-56
2024/04/03 02:24:21;;;;;;;0.10;0.10;;;;;;;9.47;100.00;98384.80;105773;1261;61320;-55
2024/04/03 02:26:48;;;;;;;0.20;0.10;;;;;;;9.44;100.00;98385.18;105806;1263;61330;-56
2024/04/03 02:29:15;;;;;;;0.20;0.10;;;;;;;9.41;100.00;98380.23;105798;1257;74700;-55
2024/04/03 02:31:43;;;;;;;0.30;0.00;;;;;;;9.38;100.00;98379.55;105663;1263;67572;-55
2024/04/03 02:34:10;;;;;;;0.20;0.00;;;;;;;9.38;100.00;98383.63;105764;1261;72468;-56
2024/04/03 02:36:37;;;;;;;0.20;0.00;;;;;;;9.38;100.00;98390.42;105781;1262;61648;-53
2024/04/03 02:39:04;;;;;;;0.30;0.10;;;;;;;9.37;100.00;98387.97;105804;1262;61247;-55
2024/04/03 02:41:31;;;;;;;0.10;0.00;;;;;;;9.39;100.00;98391.30;105809;1262;74633;-55
2024/04/03 02:43:58;;;;;;;0.20;0.10;;;;;;;9.39;100.00;98397.71;105793;1262;65809;-56
2024/04/03 02:46:26;;;;;;;0.10;0.10;;;;;;;9.38;100.00;98404.01;105839;1259;72792;-56
2024/04/03 02:48:53;;;;;;;0.20;0.10;;;;;;;9.36;100.00;98408.50;105849;1261;61317;-57
2024/04/03 02:51:20;;;;;;;1.60;0.00;;;;;;;9.32;100.00;98410.03;105682;1262;157362;-58
2024/04/03 02:55:49;;;;;;;0.10;0.00;;;;;;;9.29;100.00;98419.88;102742;1299;600087;-56
2024/04/03 02:58:16;;;;;;;1.00;0.10;;;;;;;9.26;100.00;98418.30;105150;1267;61710;-55
2024/04/03 03:00:44;;;;;;;0.10;0.00;;;;;;;9.24;100.00;98414.84;105225;1265;59959;-55
2024/04/03 03:03:11;;;;;;;0.00;0.00;;;;;;;9.23;100.00;98414.54;105168;1283;73134;-55
2024/04/03 03:05:38;;;;;;;0.20;0.10;;;;;;;9.24;100.00;98420.91;105199;1266;65968;-56
2024/04/03 03:08:06;;;;;;;0.30;0.10;;;;;;;9.25;100.00;98422.30;105246;1285;71476;-58
2024/04/03 03:10:33;;;;;;;0.10;0.10;;;;;;;9.24;100.00;98426.30;105223;1267;168798;-58
2024/04/03 03:13:00;;;;;;;0.50;0.10;;;;;;;9.21;100.00;98427.34;105362;1279;60033;-58
2024/04/03 03:15:27;;;;;;;0.40;0.10;;;;;;;9.20;100.00;98434.26;105271;1270;71860;-56
2024/04/03 03:17:54;;;;;;;0.20;0.10;;;;;;;9.19;100.00;98436.65;105615;1272;67237;-55
2024/04/03 03:20:21;;;;;;;0.10;0.10;;;;;;;9.20;100.00;98442.84;105293;1267;71785;-55
2024/04/03 03:22:49;;;;;;;0.60;0.10;;;;;;;9.19;100.00;98437.55;105322;1266;61645;-56
2024/04/03 03:25:16;;;;;;;2.90;0.10;;;;;;;9.17;100.00;98436.08;105336;1264;61465;-57
2024/04/03 03:27:43;;;;;;;0.30;0.10;;;;;;;9.15;100.00;98440.66;105318;1264;72625;-57
2024/04/03 03:30:10;;;;;;;0.10;0.10;;;;;;;9.14;100.00;98441.25;105334;1267;66966;-59
2024/04/03 03:32:37;;;;;;;1.50;0.10;;;;;;;9.12;100.00;98447.44;105270;1263;72734;-56
2024/04/03 03:35:05;;;;;;;3.10;0.30;;;;;;;9.11;100.00;98449.81;105229;1270;60486;-58
2024/04/03 03:37:32;;;;;;;1.80;0.10;;;;;;;9.10;100.00;98451.50;105453;1263;60393;-57
2024/04/03 03:40:01;;;;;;;0.10;0.10;;;;;;;9.10;100.00;98457.77;105448;1266;73962;-55
2024/04/03 03:42:28;;;;;;;0.90;0.20;;;;;;;9.09;100.00;98460.52;105641;1263;65736;-55
2024/04/03 03:44:55;;;;;;;1.50;0.10;;;;;;;9.08;100.00;98462.01;105402;1263;71504;-56
2024/04/03 03:47:22;;;;;;;0.10;0.10;;;;;;;9.08;100.00;98464.85;105437;1263;61004;-58
2024/04/03 03:52:40;;;;;;;0.80;0.10;;;;;;;9.09;100.00;98473.02;105430;1260;74318;-55
2024/04/03 03:55:07;;;;;;;0.80;0.20;;;;;;;9.09;100.00;98474.63;105542;1266;65672;-58
2024/04/03 03:57:35;;;;;;;0.30;0.10;;;;;;;9.10;100.00;98471.92;105406;1278;72107;-57
2024/04/03 04:00:03;;;;;;;0.30;0.20;;;;;;;9.10;100.00;98479.08;105374;1266;60536;-55
2024/04/03 04:02:31;;;;;;;0.40;0.20;;;;;;;9.11;100.00;98491.35;105572;1282;61177;-56
2024/04/03 04:04:58;;;;;;;0.90;0.20;;;;;;;9.10;100.00;98492.64;105576;1264;73935;-59
2024/04/03 04:07:25;;;;;;;0.40;0.20;;;;;;;9.11;100.00;98493.13;105420;1266;65526;-57
2024/04/03 04:09:52;;;;;;;0.30;0.20;;;;;;;9.12;100.00;98495.94;105369;1263;73176;-56
2024/04/03 04:12:20;;;;;;;0.70;0.30;;;;;;;9.13;100.00;98497.48;105485;1263;60474;-56
2024/04/03 04:14:48;;;;;;;0.30;0.20;;;;;;;9.14;100.00;98497.44;105431;1270;62435;-55
2024/04/03 04:17:15;;;;;;;1.30;0.30;;;;;;;9.16;100.00;98499.45;105783;1263;73987;-57
2024/04/03 04:19:42;;;;;;;1.40;0.20;;;;;;;9.18;100.00;98500.39;105789;1262;66931;-57
2024/04/03 04:22:09;;;;;;;0.20;0.20;;;;;;;9.21;100.00;98502.91;105786;1260;71718;-57
2024/04/03 04:24:37;;;;;;;0.30;0.20;;;;;;;9.25;100.00;98501.06;105858;1257;60476;-55
2024/04/03 04:27:07;;;;;;;0.40;0.20;;;;;;;9.28;100.00;98508.17;108813;1257;61165;-59
2024/04/03 04:29:40;;;;;;;0.50;0.20;;;;;;;9.31;100.00;98514.95;108772;1257;73939;-56
2024/04/03 04:32:08;;;;;;;0.50;0.30;;;;;;;9.35;100.00;98515.46;108926;1257;66000;-57
2024/04/03 04:34:39;;;;;;;0.30;0.20;;;;;;;9.38;100.00;98518.84;108740;1257;72703;-55
2024/04/03 04:37:06;;;;;;;2.00;0.20;;;;;;;9.40;100.00;98521.05;108850;1257;60733;-59
2024/04/03 04:39:33;;;;;;;0.50;0.20;;;;;;;9.41;100.00;98520.98;108765;1257;60021;-55
2024/04/03 04:42:00;;;;;;;0.50;0.30;;;;;;;9.44;100.00;98522.56;108750;1259;72619;-57
2024/04/03 04:44:27;;;;;;;0.40;0.30;;;;;;;9.50;100.00;98526.69;108794;1257;65797;-60
2024/04/03 04:46:58;;;;;;;0.30;0.30;;;;;;;9.56;100.00;98533.27;108710;1259;73203;-57
2024/04/03 04:49:26;;;;;;;0.50;0.30;;;;;;;9.61;100.00;98533.50;108822;1257;58857;-56
2024/04/03 04:51:53;;;;;;;0.70;0.30;;;;;;;9.67;100.00;98533.65;108887;1257;58792;-54
2024/04/03 04:54:22;;;;;;;1.30;0.50;;;;;;;9.75;100.00;98534.02;106848;1262;74382;-55
2024/04/03 04:56:49;;;;;;;0.50;0.30;;;;;;;9.84;100.00;98536.63;108666;1259;66879;-55
2024/04/03 04:59:17;;;;;;;2.40;0.30;;;;;;;9.93;100.00;98544.66;105857;1264;71375;-57
2024/04/03 05:01:44;;;;;;;0.50;0.40;;;;;;;9.99;100.00;98546.27;105782;1258;61849;-56
2024/04/03 05:04:11;;;;;;;0.90;0.40;;;;;;;10.05;100.00;98549.23;105745;1264;60563;-53
2024/04/03 05:06:38;;;;;;;0.90;0.40;;;;;;;10.13;100.00;98547.65;105800;1259;73865;-56
2024/04/03 05:09:06;;;;;;;0.50;0.40;;;;;;;10.21;100.00;98546.81;105759;1262;66764;-54
2024/04/03 05:11:33;;;;;;;0.60;0.30;;;;;;;10.29;100.00;98552.04;105719;1265;70489;-55
2024/04/03 05:14:01;;;;;;;0.60;0.30;;;;;;;10.36;100.00;98553.48;105659;1263;60806;-59
2024/04/03 05:16:29;;;;;;;1.50;0.30;;;;;;;10.44;100.00;98556.55;105668;1260;60840;-55
2024/04/03 05:18:56;;;;;;;1.10;0.40;;;;;;;10.53;100.00;98559.68;105719;1263;73850;-54
2024/04/03 05:21:23;;;;;;;1.30;0.40;;;;;;;10.62;100.00;98556.61;105808;1262;66365;-55
2024/04/03 05:23:51;;;;;;;0.50;0.40;;;;;;;10.71;100.00;98562.98;105595;1264;73313;-61
2024/04/03 05:26:18;;;;;;;0.80;0.40;;;;;;;10.80;100.00;98565.21;105934;1262;60515;-56
2024/04/03 05:28:45;;;;;;;0.70;0.30;;;;;;;10.90;100.00;98564.73;105654;1260;60752;-56
2024/04/03 05:31:15;;;;;;;0.30;0.30;;;;;;;10.96;100.00;98583.92;105703;1259;73897;-54
2024/04/03 05:33:43;;;;;;;0.50;0.30;;;;;;;10.99;100.00;98589.02;105665;1263;67018;-53
2024/04/03 05:36:10;;;;;;;1.60;0.40;;;;;;;11.00;100.00;98588.42;105643;1266;72796;-55
2024/04/03 05:38:38;;;;;;;0.80;0.30;;;;;;;11.00;100.00;98592.21;105884;1263;61457;-56
2024/04/03 05:41:07;;;;;;;0.60;0.30;;;;;;;10.98;100.00;98599.70;105799;1260;60323;-54
2024/04/03 05:43:39;;;;;;;0.50;0.40;;;;;;;10.93;100.00;98599.73;105795;1262;73908;-57
2024/04/03 05:46:06;;;;;;;1.80;0.40;;;;;;;10.89;100.00;98599.45;105731;1263;68923;-55
2024/04/03 05:48:34;;;;;;;0.60;0.30;;;;;;;10.88;100.00;98605.11;105635;1260;72721;-54
2024/04/03 05:51:05;;;;;;;1.30;0.30;;;;;;;10.88;100.00;98602.95;105584;1266;60535;-56
2024/04/03 05:53:34;;;;;;;1.10;0.40;;;;;;;10.92;100.00;98611.28;105626;1256;60441;-55
2024/04/03 05:56:02;;;;;;;0.60;0.40;;;;;;;10.96;100.00;98617.66;105928;1259;74226;-54
2024/04/03 05:58:29;;;;;;;1.20;0.50;;;;;;;10.95;100.00;98614.84;105864;1263;66968;-54
2024/04/03 06:00:58;;;;;;;1.90;0.30;;;;;;;10.95;100.00;98620.74;105741;1257;72752;-56
2024/04/03 06:03:25;;;;;;;0.80;0.30;;;;;;;10.98;100.00;98619.67;106110;1254;60411;-54
2024/04/03 06:05:57;;;;;;;0.60;0.40;;;;;;;11.00;100.00;98628.47;106032;1258;61526;-55
2024/04/03 06:08:25;;;;;;;1.30;0.40;;;;;;;11.01;100.00;98635.23;106038;1254;74412;-57
2024/04/03 06:10:53;;;;;;;0.60;0.40;;;;;;;11.02;100.00;98635.37;106002;1255;67640;-53
2024/04/03 06:13:20;;;;;;;1.20;0.40;;;;;;;11.04;100.00;98637.96;105942;1257;70472;-55
2024/04/03 06:15:47;;;;;;;0.80;0.30;;;;;;;11.08;100.00;98644.10;106074;1254;60610;-58
2024/04/03 06:18:14;;;;;;;1.20;0.30;;;;;;;11.13;100.00;98645.60;106428;1253;60336;-56
2024/04/03 06:20:42;;;;;;;0.40;0.40;;;;;;;11.22;100.00;98653.21;106201;1254;72656;-54
2024/04/03 06:23:12;;;;;;;0.60;0.30;;;;;;;11.29;100.00;98656.44;106059;1259;65939;-55
2024/04/03 06:25:39;;;;;;;0.70;0.40;;;;;;;11.34;100.00;98651.45;106032;1259;73734;-56
2024/04/03 06:28:06;;;;;;;1.20;0.40;;;;;;;11.38;100.00;98657.86;106069;1255;60483;-56
2024/04/03 06:30:34;;;;;;;6.20;0.40;;;;;;;11.38;100.00;98659.79;106024;1253;60615;-54
2024/04/03 06:33:01;;;;;;;0.70;0.30;;;;;;;11.39;100.00;98661.00;106028;1253;72927;-55
2024/04/03 06:35:28;;;;;;;1.40;0.40;;;;;;;11.40;100.00;98663.45;106140;1253;66256;-55
2024/04/03 06:37:56;;;;;;;0.50;0.30;;;;;;;11.41;100.00;98657.30;106189;1257;73178;-55
2024/04/03 06:40:23;;;;;;;0.70;0.30;;;;;;;11.43;100.00;98659.11;106025;1254;60698;-56
2024/04/03 06:42:50;;;;;;;0.60;0.40;;;;;;;11.47;100.00;98665.87;106072;1254;60479;-56
2024/04/03 06:45:17;;;;;;;1.20;0.40;;;;;;;11.52;100.00;98663.15;106064;1259;73913;-56
2024/04/03 06:47:47;;;;;;;0.60;0.30;;;;;;;11.60;100.00;98674.10;106059;1254;67586;-55
2024/04/03 06:50:14;;;;;;;0.40;0.40;;;;;;;11.65;100.00;98671.43;106194;1259;72095;-55
2024/04/03 06:52:41;;;;;;;1.50;0.60;;;;;;;11.63;100.00;98672.42;106019;1255;62725;-56
2024/04/03 06:55:09;;;;;;;1.50;0.30;;;;;;;11.65;100.00;98673.56;106013;1259;60553;-54
2024/04/03 06:57:36;;;;;;;0.80;0.40;;;;;;;11.69;100.00;98674.71;106048;1259;73951;-55
2024/04/03 07:00:04;;;;;;;2.20;0.40;;;;;;;11.73;100.00;98669.57;105983;1256;67425;-57
2024/04/03 07:02:32;;;;;;;0.70;0.40;;;;;;;11.78;100.00;98675.20;106101;1258;71718;-55
2024/04/03 07:04:59;;;;;;;1.40;0.30;;;;;;;11.84;100.00;98677.31;106246;1259;62301;-55
2024/04/03 07:07:26;;;;;;;1.50;0.40;;;;;;;11.88;100.00;98684.91;106084;1258;62325;-56
2024/04/03 07:09:54;;;;;;;0.40;0.30;;;;;;;11.88;100.00;98678.11;106039;1266;73480;-54
2024/04/03 07:12:21;;;;;;;1.00;0.30;;;;;;;11.89;100.00;98674.08;106098;1258;67634;-55
2024/04/03 07:14:48;;;;;;;0.80;0.30;;;;;;;11.95;100.00;98679.36;106068;1260;73156;-56
2024/04/03 07:17:16;;;;;;;1.10;0.40;;;;;;;12.04;100.00;98680.88;105981;1261;61106;-56
2024/04/03 07:19:43;;;;;;;0.50;0.20;;;;;;;12.10;100.00;98685.45;106146;1254;61244;-56
2024/04/03 07:22:10;;;;;;;0.50;0.30;;;;;;;12.16;100.00;98687.59;106064;1259;73562;-55
2024/04/03 07:24:37;;;;;;;0.80;0.30;;;;;;;12.21;100.00;98696.02;106048;1255;65492;-55
2024/04/03 07:27:04;;;;;;;0.40;0.30;;;;;;;12.30;100.00;98698.84;106072;1259;72693;-56
2024/04/03 07:29:32;;;;;;;0.90;0.30;;;;;;;12.40;100.00;98700.23;105974;1259;61732;-56
2024/04/03 07:31:59;;;;;;;0.40;0.20;;;;;;;12.51;100.00;98714.95;106013;1259;63269;-55
2024/04/03 07:34:26;;;;;;;1.70;0.30;;;;;;;12.59;100.00;98720.85;109051;1253;72794;-54
2024/04/03 07:36:53;;;;;;;0.80;0.30;;;;;;;12.62;100.00;98721.98;109157;1254;65949;-56
2024/04/03 07:39:20;;;;;;;1.00;0.40;;;;;;;12.68;100.00;98729.87;109068;1256;71458;-57
2024/04/03 07:41:47;;;;;;;0.80;0.30;;;;;;;12.72;100.00;98731.38;109115;1254;59175;-55
2024/04/03 07:44:17;;;;;;;1.10;0.30;;;;;;;12.74;100.00;98729.39;109241;1254;59219;-56
2024/04/03 07:46:44;;;;;;;0.90;0.30;;;;;;;12.78;100.00;98737.39;109037;1254;75807;-57
2024/04/03 07:49:12;;;;;;;0.70;0.30;;;;;;;12.77;100.00;98741.45;109082;1254;65875;-57
2024/04/03 07:51:41;;;;;;;0.40;0.20;;;;;;;12.74;100.00;98738.25;109107;1254;71466;-58
2024/04/03 07:54:08;;;;;;;0.70;0.30;;;;;;;12.77;100.00;98743.27;109105;1258;60521;-56
2024/04/03 07:56:35;;;;;;;0.30;0.20;;;;;;;12.80;100.00;98745.02;109056;1254;59380;-56
2024/04/03 07:59:02;;;;;;;1.20;0.30;;;;;;;12.85;100.00;98742.61;109156;1253;74791;-56
2024/04/03 08:01:29;;;;;;;0.80;0.30;;;;;;;12.93;100.00;98745.17;109149;1254;65806;-57
2024/04/03 08:03:56;;;;;;;0.50;0.30;;;;;;;13.01;100.00;98745.46;109093;1253;73179;-57
2024/04/03 08:06:24;;;;;;;1.10;0.30;;;;;;;13.08;100.00;98744.16;106298;1258;60395;-57
2024/04/03 08:08:51;;;;;;;0.60;0.30;;;;;;;13.18;100.00;98746.35;106030;1259;61285;-55
2024/04/03 08:11:18;;;;;;;0.70;0.30;;;;;;;13.26;100.00;98748.08;105975;1254;73461;-56
2024/04/03 08:13:46;;;;;;;0.60;0.20;;;;;;;13.34;100.00;98752.00;106026;1267;67640;-56
2024/04/03 08:16:13;;;;;;;0.40;0.30;;;;;;;13.38;100.00;98752.92;106045;1254;71912;-57
2024/04/03 08:18:41;;;;;;;0.30;0.20;;;;;;;13.37;100.00;98766.49;105991;1259;61317;-56
2024/04/03 08:21:10;;;;;;;1.10;0.60;;;;;;;13.33;100.00;98767.02;105910;1275;61345;-56
2024/04/03 08:23:37;;;;;;;1.00;0.20;;;;;;;13.30;100.00;98767.25;105992;1259;74706;-55
2024/04/03 08:26:08;;;;;;;0.50;0.20;;;;;;;13.29;100.00;98771.48;105994;1254;67034;-55
2024/04/03 08:28:36;;;;;;;1.60;0.30;;;;;;;13.32;100.00;98773.95;105999;1259;74649;-56
2024/04/03 08:32:56;;;;;;;1.10;0.30;;;;;;;13.38;100.00;98777.95;101923;1297;600129;-56
2024/04/03 08:35:23;;;;;;;1.40;0.30;;;;;;;13.34;100.00;98787.48;105033;1270;59872;-57
2024/04/03 08:37:50;;;;;;;0.70;0.30;;;;;;;13.29;100.00;98781.59;105082;1274;59466;-56
2024/04/03 08:40:24;;;;;;;1.50;0.30;;;;;;;13.25;100.00;98782.92;105055;1289;73046;-57
2024/04/03 08:42:50;;;;;;;1.20;0.30;;;;;;;13.24;100.00;98780.30;105054;1275;66923;-55
2024/04/03 08:45:17;;;;;;;0.60;0.30;;;;;;;13.28;100.00;98780.00;105051;1275;72621;-57
2024/04/03 08:47:44;;;;;;;0.60;0.30;;;;;;;13.39;100.00;98782.95;105026;1270;156900;-57
2024/04/03 08:50:10;;;;;;;0.80;0.20;;;;;;;13.53;100.00;98779.17;105214;1266;59752;-55
2024/04/03 08:52:37;;;;;;;1.00;0.30;;;;;;;13.65;100.00;98783.65;105240;1270;74260;-56
2024/04/03 08:55:04;;;;;;;0.60;0.30;;;;;;;13.75;100.00;98789.56;104988;1269;66975;-57
2024/04/03 08:57:31;;;;;;;0.20;0.20;;;;;;;13.81;100.00;98790.77;105311;1267;72599;-55
2024/04/03 08:59:59;;;;;;;0.30;0.20;;;;;;;13.84;100.00;98793.98;105286;1266;60268;-56
2024/04/03 09:02:25;;;;;;;1.10;0.20;;;;;;;13.88;100.00;98796.52;108363;1267;59068;-56
2024/04/03 09:04:55;;;;;;;0.70;0.20;;;;;;;13.88;100.00;98796.48;108213;1267;76113;-56
2024/04/03 09:07:21;;;;;;;0.70;0.20;;;;;;;13.83;100.00;98797.12;108381;1267;67932;-58
2024/04/03 09:09:48;;;;;;;1.00;0.50;;;;;;;13.77;100.00;98802.58;108282;1268;72556;-56
2024/04/03 09:12:15;;;;;;;0.70;0.20;;;;;;;13.74;100.00;98797.42;108297;1266;58517;-55
2024/04/03 09:14:44;;;;;;;0.60;0.20;;;;;;;13.78;100.00;98794.60;106002;1269;61259;-57
2024/04/03 09:17:12;;;;;;;1.10;0.20;;;;;;;13.86;100.00;98794.13;105288;1268;74171;-57
2024/04/03 09:19:50;;;;;;;0.40;0.30;;;;;;;13.95;100.00;98794.56;105277;1272;67283;-58
2024/04/03 09:22:16;;;;;;;0.60;0.20;;;;;;;14.03;100.00;98795.52;105218;1270;72628;-56
2024/04/03 09:24:43;;;;;;;0.30;0.10;;;;;;;14.11;100.00;98792.95;105152;1282;60533;-58
2024/04/03 09:27:10;;;;;;;1.10;0.20;;;;;;;14.20;100.00;98795.51;105223;1287;61499;-56
2024/04/03 09:29:37;;;;;;;0.30;0.20;;;;;;;14.26;100.00;98795.49;105219;1267;73808;-55
2024/04/03 09:32:05;;;;;;;0.90;0.20;;;;;;;14.35;100.00;98787.57;105226;1269;66437;-54
2024/04/03 09:34:32;;;;;;;0.50;0.10;;;;;;;14.45;100.00;98787.20;105276;1269;72345;-57
2024/04/03 09:37:02;;;;;;;1.00;0.20;;;;;;;14.55;100.00;98786.95;105351;1272;61372;-55
2024/04/03 09:39:28;;;;;;;0.40;0.30;;;;;;;14.64;100.00;98784.90;105210;1271;60385;-57
2024/04/03 09:42:04;;;;;;;0.60;0.30;;;;;;;14.70;100.00;98782.11;105134;1269;73560;-56
2024/04/03 09:44:31;;;;;;;0.40;0.20;;;;;;;14.72;100.00;98783.95;105208;1271;67395;-58
2024/04/03 09:47:04;;;;;;;0.30;0.20;;;;;;;14.69;100.00;98785.42;107828;1267;72756;-55
2024/04/03 09:49:35;;;;;;;2.00;0.20;;;;;;;14.74;100.00;98788.98;105377;1272;60521;-57
2024/04/03 09:52:02;;;;;;;0.50;0.20;;;;;;;14.83;100.00;98794.27;105238;1269;60523;-57
2024/04/03 09:54:30;;;;;;;2.90;0.20;;;;;;;14.91;100.00;98797.59;105060;1270;73785;-57
2024/04/03 09:56:57;;;;;;;0.70;0.20;;;;;;;14.97;100.00;98796.52;105396;1269;67381;-57
2024/04/03 09:59:23;;;;;;;0.20;0.20;;;;;;;15.02;100.00;98791.77;105001;1270;72488;-58
2024/04/03 10:01:50;;;;;;;0.30;0.10;;;;;;;15.09;100.00;98797.00;105227;1268;60613;-57
2024/04/03 10:04:17;;;;;;;0.40;0.10;;;;;;;15.11;100.00;98803.70;105235;1269;61461;-57
2024/04/03 10:06:44;;;;;;;0.30;0.20;;;;;;;15.08;100.00;98809.17;105243;1269;71883;-59
2024/04/03 10:09:15;;;;;;;0.20;0.20;;;;;;;15.04;100.00;98805.91;105722;1269;67374;-56
2024/04/03 10:11:51;;;;;;;0.20;0.20;;;;;;;15.03;100.00;98810.10;105387;1269;73340;-55
2024/04/03 10:14:19;;;;;;;0.30;0.20;;;;;;;15.04;100.00;98800.13;105307;1271;60479;-59
2024/04/03 10:16:46;;;;;;;0.20;0.20;;;;;;;15.02;100.00;98803.91;105585;1269;60579;-55
2024/04/03 10:19:13;;;;;;;0.20;0.10;;;;;;;15.04;100.00;98812.00;105150;1269;73722;-56
2024/04/03 10:21:39;;;;;;;0.30;0.20;;;;;;;15.04;100.00;98812.54;105261;1269;67471;-54
2024/04/03 10:24:07;;;;;;;0.90;0.10;;;;;;;15.01;100.00;98815.21;105848;1272;73580;-52
2024/04/03 10:26:33;;;;;;;0.30;0.10;;;;;;;14.95;100.00;98817.10;105104;1272;61352;-55
2024/04/03 10:29:08;;;;;;;0.40;0.10;;;;;;;14.92;100.00;98820.05;104998;1274;60498;-58
2024/04/03 10:31:35;;;;;;;0.70;0.10;;;;;;;14.95;100.00;98827.92;106550;1270;73883;-59
2024/04/03 10:34:01;;;;;;;1.60;0.10;;;;;;;15.00;100.00;98830.61;105186;1272;67306;-56
2024/04/03 10:36:28;;;;;;;1.00;0.10;;;;;;;14.99;100.00;98833.38;108242;1269;72675;-54
2024/04/03 10:38:55;;;;;;;2.00;0.10;;;;;;;14.97;100.00;98829.95;108214;1268;60088;-59
2024/04/03 10:41:22;;;;;;;0.30;0.10;;;;;;;14.98;100.00;98831.13;108269;1269;59036;-58
2024/04/03 10:43:49;;;;;;;0.80;0.10;;;;;;;15.01;100.00;98841.19;108462;1267;72386;-56
2024/04/03 10:46:22;;;;;;;1.00;0.10;;;;;;;15.02;100.00;98834.73;108260;1269;66122;-55
2024/04/03 10:48:49;;;;;;;0.80;0.20;;;;;;;15.02;100.00;98833.11;108420;1267;72848;-58
2024/04/03 10:51:16;;;;;;;0.30;0.20;;;;;;;15.05;100.00;98834.03;108307;1267;59100;-57
2024/04/03 10:53:43;;;;;;;0.10;0.10;;;;;;;15.04;100.00;98828.45;108247;1269;60227;-56
2024/04/03 10:56:09;;;;;;;0.40;0.10;;;;;;;15.04;100.00;98831.20;106042;1271;72635;-55
2024/04/03 10:58:38;;;;;;;0.90;0.10;;;;;;;15.05;100.00;98836.36;105196;1272;66181;-57
2024/04/03 11:01:07;;;;;;;0.40;0.10;;;;;;;15.06;100.00;98836.02;108225;1269;72273;-53
2024/04/03 11:03:37;;;;;;;0.20;0.10;;;;;;;15.09;100.00;98833.15;108336;1267;60418;-54
2024/04/03 11:06:05;;;;;;;1.00;0.20;;;;;;;15.12;100.00;98839.91;108341;1267;60625;-54
2024/04/03 11:08:31;;;;;;;1.20;0.10;;;;;;;15.18;100.00;98839.05;108267;1269;72852;-53
2024/04/03 11:11:10;;;;;;;0.20;0.10;;;;;;;15.24;100.00;98845.45;105851;1272;67581;-56
2024/04/03 11:13:37;;;;;;;0.10;0.10;;;;;;;15.27;100.00;98843.61;105137;1271;72572;-57
2024/04/03 11:16:10;;;;;;;0.20;0.10;;;;;;;15.29;100.00;98848.89;106132;1272;61068;-55
2024/04/03 11:18:37;;;;;;;0.80;0.10;;;;;;;15.28;100.00;98852.16;105212;1282;60459;-56
2024/04/03 11:21:05;;;;;;;0.20;0.10;;;;;;;15.23;100.00;98855.83;107031;1271;73976;-56
2024/04/03 11:23:33;;;;;;;0.10;0.10;;;;;;;15.15;100.00;98857.19;105562;1269;67078;-55
2024/04/03 11:26:00;;;;;;;0.30;0.10;;;;;;;15.10;100.00;98862.88;107297;1271;72406;-54
2024/04/03 11:28:27;;;;;;;0.20;0.10;;;;;;;15.06;100.00;98867.67;105166;1269;63224;-53